Ana Sayfa
METAR-TAF:

METAR-TAF

Havaalanları :

Franklin County Airport

Louisburg, Kuzey Carolina, Amerika Birleşik Devletleri

Enlem: 36-01-24N, Boylam: 078-19-49W, yükseklik: 113 m

Güncel hava durumu gözlemi

Rapor saat 22:20 UTC de 37 dakika önce yapıldı.
Rüzgar kuzeydan 5 kt
Sıcaklık 28°C
Nem 37%
Basınç 1016 hPa
Görüş mesafesi: 16.1 km
Açık gökyüzü

METAR: KLHZ 212220Z AUTO 35005KT 10SM CLR 28/12 A2999 RMK AO2

Saat: 18:57 (22:57 UTC)


TAF: eksik

4.000'den fazla havaalanı için hava durumu gözlemleri ve tahminleri (METAR ve TAF raporları).

Kullanılabilir istasyonlar harita üzerinde sarı ve kırmızı noktalarla gösterilir.

İstasyonun adını görmek için fareyi noktanın üzerinde gezdirin.

Sonrasında hava gözlem ve tahminlerini görmek için tıklayın.

Haritayı değiştirmek için: yaklaştırmak için siyah artı işaretli yeşil düğmeye ve uzaklaştırmak için de eksi işaretli düğmeye hızla tıklayın; bitişik haritalar için yeşil okları kullanın.


METAR-TAF: